LFBH/LRH METAR and TAF weather

Enter ICAO airport designator
Station Type Date Time Source
LFBH METAR 2020/04/07 15:00 UTC NOAA

LFBH 071500Z AUTO 31005KT CAVOK 18/08 Q1023


Station Type Date Time Source
LFBH Decoded METAR 2020/04/07 15:00 UTC NOAA

La Rochelle, France (LFBH) 46-09N 001-09W 10M
Apr 07, 2020 - 11:00 AM EDT / 2020.04.07 1500 UTC
Wind: from the NW (310 degrees) at 6 MPH (5 KT):0
Visibility: greater than 7 mile(s):0
Temperature: 64 F (18 C)
Dew Point: 46 F (8 C)
Relative Humidity: 51%
Pressure (altimeter): 30.21 in. Hg (1023 hPa)
ob: LFBH 071500Z AUTO 31005KT CAVOK 18/08 Q1023
cycle: 15

Station Type Date Time Source
LFBH TAF 2020/03/27 18:57 UTC NOAA

TAF
AMD TAF
AMD LFBH 271855Z 2718/2818 CNL

Example: see airport list